sensor_id;sensor_type;location;lat;lon;timestamp;temperature;humidity
19044;DHT22;9654;52.302;8.120;2022-12-26T00:01:47;8.90;99.90
19044;DHT22;9654;52.302;8.120;2022-12-26T00:04:15;8.90;99.90
19044;DHT22;9654;52.302;8.120;2022-12-26T00:06:43;8.90;99.90
19044;DHT22;9654;52.302;8.120;2022-12-26T00:09:10;8.90;99.90
19044;DHT22;9654;52.302;8.120;2022-12-26T00:11:37;8.90;99.90
19044;DHT22;9654;52.302;8.120;2022-12-26T00:14:06;8.90;99.90
19044;DHT22;9654;52.302;8.120;2022-12-26T00:16:34;8.90;99.90
19044;DHT22;9654;52.302;8.120;2022-12-26T00:19:02;8.90;99.90
19044;DHT22;9654;52.302;8.120;2022-12-26T00:21:29;8.90;99.90
19044;DHT22;9654;52.302;8.120;2022-12-26T00:23:58;8.90;99.90
19044;DHT22;9654;52.302;8.120;2022-12-26T00:26:28;8.90;99.90
19044;DHT22;9654;52.302;8.120;2022-12-26T00:28:55;8.90;99.90
19044;DHT22;9654;52.302;8.120;2022-12-26T00:31:24;8.90;99.90
19044;DHT22;9654;52.302;8.120;2022-12-26T00:33:52;8.90;99.90
19044;DHT22;9654;52.302;8.120;2022-12-26T00:36:20;8.90;99.90
19044;DHT22;9654;52.302;8.120;2022-12-26T00:38:47;8.90;99.90
19044;DHT22;9654;52.302;8.120;2022-12-26T00:41:16;8.90;99.90
19044;DHT22;9654;52.302;8.120;2022-12-26T00:43:44;8.80;99.90
19044;DHT22;9654;52.302;8.120;2022-12-26T00:46:10;8.90;99.90
19044;DHT22;9654;52.302;8.120;2022-12-26T00:48:37;8.80;99.90
19044;DHT22;9654;52.302;8.120;2022-12-26T00:51:05;8.90;99.90
19044;DHT22;9654;52.302;8.120;2022-12-26T00:53:32;8.80;99.90
19044;DHT22;9654;52.302;8.120;2022-12-26T00:55:59;8.90;99.90
19044;DHT22;9654;52.302;8.120;2022-12-26T00:58:27;8.80;99.90
19044;DHT22;9654;52.302;8.120;2022-12-26T01:00:54;8.80;99.90
19044;DHT22;9654;52.302;8.120;2022-12-26T01:03:21;8.80;99.90
19044;DHT22;9654;52.302;8.120;2022-12-26T01:05:49;8.80;99.90
19044;DHT22;9654;52.302;8.120;2022-12-26T01:08:17;8.80;99.90
19044;DHT22;9654;52.302;8.120;2022-12-26T01:10:45;8.90;99.90
19044;DHT22;9654;52.302;8.120;2022-12-26T01:13:12;8.90;99.90
19044;DHT22;9654;52.302;8.120;2022-12-26T01:15:46;8.90;99.90
19044;DHT22;9654;52.302;8.120;2022-12-26T01:18:14;8.90;99.90
19044;DHT22;9654;52.302;8.120;2022-12-26T01:20:40;8.90;99.90
19044;DHT22;9654;52.302;8.120;2022-12-26T01:23:07;9.00;99.90
19044;DHT22;9654;52.302;8.120;2022-12-26T01:25:34;9.00;99.90
19044;DHT22;9654;52.302;8.120;2022-12-26T01:28:00;9.00;99.90
19044;DHT22;9654;52.302;8.120;2022-12-26T01:30:27;9.00;99.90
19044;DHT22;9654;52.302;8.120;2022-12-26T01:32:56;9.00;99.90
19044;DHT22;9654;52.302;8.120;2022-12-26T01:35:22;9.00;99.90
19044;DHT22;9654;52.302;8.120;2022-12-26T01:37:49;9.00;99.90
19044;DHT22;9654;52.302;8.120;2022-12-26T01:40:16;9.00;99.90
19044;DHT22;9654;52.302;8.120;2022-12-26T01:42:43;9.00;99.90
19044;DHT22;9654;52.302;8.120;2022-12-26T01:45:21;9.00;99.90
19044;DHT22;9654;52.302;8.120;2022-12-26T01:47:51;9.00;99.90
19044;DHT22;9654;52.302;8.120;2022-12-26T01:50:29;9.00;99.90
19044;DHT22;9654;52.302;8.120;2022-12-26T01:53:01;9.00;99.90
19044;DHT22;9654;52.302;8.120;2022-12-26T01:55:29;9.00;99.90
19044;DHT22;9654;52.302;8.120;2022-12-26T01:58:03;9.10;99.90
19044;DHT22;9654;52.302;8.120;2022-12-26T02:00:31;9.00;99.90
19044;DHT22;9654;52.302;8.120;2022-12-26T02:02:58;9.10;99.90
19044;DHT22;9654;52.302;8.120;2022-12-26T02:05:45;9.10;99.90
19044;DHT22;9654;52.302;8.120;2022-12-26T02:08:13;9.10;99.90
19044;DHT22;9654;52.302;8.120;2022-12-26T02:10:45;9.10;99.90
19044;DHT22;9654;52.302;8.120;2022-12-26T02:13:14;9.10;99.90
19044;DHT22;9654;52.302;8.120;2022-12-26T02:15:42;9.10;99.90
19044;DHT22;9654;52.302;8.120;2022-12-26T02:18:09;9.10;99.90
19044;DHT22;9654;52.302;8.120;2022-12-26T02:20:41;9.10;99.90
19044;DHT22;9654;52.302;8.120;2022-12-26T02:29:55;9.10;99.90
19044;DHT22;9654;52.302;8.120;2022-12-26T02:32:33;9.10;99.90
19044;DHT22;9654;52.302;8.120;2022-12-26T02:35:06;9.10;99.90
19044;DHT22;9654;52.302;8.120;2022-12-26T02:37:48;9.10;99.90
19044;DHT22;9654;52.302;8.120;2022-12-26T02:40:29;9.10;99.90
19044;DHT22;9654;52.302;8.120;2022-12-26T02:42:58;9.10;99.90
19044;DHT22;9654;52.302;8.120;2022-12-26T02:45:32;9.10;99.90
19044;DHT22;9654;52.302;8.120;2022-12-26T02:48:28;9.10;99.90
19044;DHT22;9654;52.302;8.120;2022-12-26T02:51:06;9.10;99.90
19044;DHT22;9654;52.302;8.120;2022-12-26T02:54:00;9.10;99.90
19044;DHT22;9654;52.302;8.120;2022-12-26T02:56:50;9.20;99.90
19044;DHT22;9654;52.302;8.120;2022-12-26T02:59:42;9.20;99.90
19044;DHT22;9654;52.302;8.120;2022-12-26T03:02:32;9.20;99.90
19044;DHT22;9654;52.302;8.120;2022-12-26T03:05:23;9.20;99.90
19044;DHT22;9654;52.302;8.120;2022-12-26T03:08:12;9.20;99.90
19044;DHT22;9654;52.302;8.120;2022-12-26T03:11:00;9.20;99.90
19044;DHT22;9654;52.302;8.120;2022-12-26T03:13:44;9.10;99.90
19044;DHT22;9654;52.302;8.120;2022-12-26T03:16:13;9.10;99.90
19044;DHT22;9654;52.302;8.120;2022-12-26T03:19:02;9.10;99.90
19044;DHT22;9654;52.302;8.120;2022-12-26T03:21:35;9.10;99.90
19044;DHT22;9654;52.302;8.120;2022-12-26T03:24:04;9.10;99.90
19044;DHT22;9654;52.302;8.120;2022-12-26T03:26:33;9.10;99.90
19044;DHT22;9654;52.302;8.120;2022-12-26T03:29:08;9.10;99.90
19044;DHT22;9654;52.302;8.120;2022-12-26T03:31:53;9.10;99.90
19044;DHT22;9654;52.302;8.120;2022-12-26T03:34:21;9.00;99.90
19044;DHT22;9654;52.302;8.120;2022-12-26T03:37:17;9.00;99.90
19044;DHT22;9654;52.302;8.120;2022-12-26T03:39:52;9.00;99.90
19044;DHT22;9654;52.302;8.120;2022-12-26T03:42:44;9.00;99.90
19044;DHT22;9654;52.302;8.120;2022-12-26T03:45:37;9.00;99.90
19044;DHT22;9654;52.302;8.120;2022-12-26T03:48:29;9.00;99.90
19044;DHT22;9654;52.302;8.120;2022-12-26T03:51:18;9.00;99.90
19044;DHT22;9654;52.302;8.120;2022-12-26T03:54:07;9.00;99.90
19044;DHT22;9654;52.302;8.120;2022-12-26T03:56:57;9.00;99.90
19044;DHT22;9654;52.302;8.120;2022-12-26T03:59:47;9.00;99.90
19044;DHT22;9654;52.302;8.120;2022-12-26T04:02:33;9.10;99.90
19044;DHT22;9654;52.302;8.120;2022-12-26T04:05:19;9.00;99.90
19044;DHT22;9654;52.302;8.120;2022-12-26T04:08:10;9.00;99.90
19044;DHT22;9654;52.302;8.120;2022-12-26T04:10:58;9.00;99.90
19044;DHT22;9654;52.302;8.120;2022-12-26T04:13:50;8.90;99.90
19044;DHT22;9654;52.302;8.120;2022-12-26T04:16:40;8.90;99.90
19044;DHT22;9654;52.302;8.120;2022-12-26T04:19:47;9.00;99.90
19044;DHT22;9654;52.302;8.120;2022-12-26T04:22:21;8.90;99.90
19044;DHT22;9654;52.302;8.120;2022-12-26T04:25:12;8.90;99.90
19044;DHT22;9654;52.302;8.120;2022-12-26T04:27:58;8.90;99.90
19044;DHT22;9654;52.302;8.120;2022-12-26T04:30:47;8.90;99.90
19044;DHT22;9654;52.302;8.120;2022-12-26T04:33:36;9.00;99.90
19044;DHT22;9654;52.302;8.120;2022-12-26T04:36:28;9.00;99.90
19044;DHT22;9654;52.302;8.120;2022-12-26T04:39:16;9.00;99.90
19044;DHT22;9654;52.302;8.120;2022-12-26T04:42:02;8.90;99.90
19044;DHT22;9654;52.302;8.120;2022-12-26T04:44:49;8.90;99.90
19044;DHT22;9654;52.302;8.120;2022-12-26T04:47:16;8.90;99.90
19044;DHT22;9654;52.302;8.120;2022-12-26T04:49:44;8.90;99.90
19044;DHT22;9654;52.302;8.120;2022-12-26T04:52:29;8.90;99.90
19044;DHT22;9654;52.302;8.120;2022-12-26T04:55:10;8.90;99.90
19044;DHT22;9654;52.302;8.120;2022-12-26T04:57:36;8.90;99.90
19044;DHT22;9654;52.302;8.120;2022-12-26T05:00:06;8.90;99.90
19044;DHT22;9654;52.302;8.120;2022-12-26T05:02:32;8.90;99.90
19044;DHT22;9654;52.302;8.120;2022-12-26T05:05:17;9.00;99.90
19044;DHT22;9654;52.302;8.120;2022-12-26T05:08:01;8.90;99.90
19044;DHT22;9654;52.302;8.120;2022-12-26T05:10:45;8.90;99.90
19044;DHT22;9654;52.302;8.120;2022-12-26T05:13:12;8.90;99.90
19044;DHT22;9654;52.302;8.120;2022-12-26T05:15:40;8.90;99.90
19044;DHT22;9654;52.302;8.120;2022-12-26T05:18:21;8.90;99.90
19044;DHT22;9654;52.302;8.120;2022-12-26T05:21:07;8.90;99.90
19044;DHT22;9654;52.302;8.120;2022-12-26T05:23:52;8.90;99.90
19044;DHT22;9654;52.302;8.120;2022-12-26T05:26:37;8.90;99.90
19044;DHT22;9654;52.302;8.120;2022-12-26T05:29:21;8.80;99.90
19044;DHT22;9654;52.302;8.120;2022-12-26T05:31:49;8.90;99.90
19044;DHT22;9654;52.302;8.120;2022-12-26T05:34:16;8.90;99.90
19044;DHT22;9654;52.302;8.120;2022-12-26T05:36:46;8.80;99.90
19044;DHT22;9654;52.302;8.120;2022-12-26T05:39:14;8.80;99.90
19044;DHT22;9654;52.302;8.120;2022-12-26T05:41:40;8.80;99.90
19044;DHT22;9654;52.302;8.120;2022-12-26T05:44:08;8.80;99.90
19044;DHT22;9654;52.302;8.120;2022-12-26T05:46:35;8.80;99.90
19044;DHT22;9654;52.302;8.120;2022-12-26T05:49:04;8.80;99.90
19044;DHT22;9654;52.302;8.120;2022-12-26T05:51:31;8.80;99.90
19044;DHT22;9654;52.302;8.120;2022-12-26T05:53:58;8.80;99.90
19044;DHT22;9654;52.302;8.120;2022-12-26T05:56:25;8.80;99.90
19044;DHT22;9654;52.302;8.120;2022-12-26T05:58:56;8.80;99.90
19044;DHT22;9654;52.302;8.120;2022-12-26T06:01:24;8.80;99.90
19044;DHT22;9654;52.302;8.120;2022-12-26T06:03:54;8.80;99.90
19044;DHT22;9654;52.302;8.120;2022-12-26T06:06:23;8.70;99.90
19044;DHT22;9654;52.302;8.120;2022-12-26T06:08:51;8.70;99.90
19044;DHT22;9654;52.302;8.120;2022-12-26T06:11:19;8.70;99.90
19044;DHT22;9654;52.302;8.120;2022-12-26T06:13:46;8.70;99.90
19044;DHT22;9654;52.302;8.120;2022-12-26T06:16:15;8.60;99.90
19044;DHT22;9654;52.302;8.120;2022-12-26T06:18:42;8.60;99.90
19044;DHT22;9654;52.302;8.120;2022-12-26T06:21:09;8.60;99.90
19044;DHT22;9654;52.302;8.120;2022-12-26T06:23:38;8.60;99.90
19044;DHT22;9654;52.302;8.120;2022-12-26T06:26:06;8.60;99.90
19044;DHT22;9654;52.302;8.120;2022-12-26T06:28:34;8.60;99.90
19044;DHT22;9654;52.302;8.120;2022-12-26T06:31:03;8.60;99.90
19044;DHT22;9654;52.302;8.120;2022-12-26T06:33:30;8.60;99.90
19044;DHT22;9654;52.302;8.120;2022-12-26T06:36:02;8.60;99.90
19044;DHT22;9654;52.302;8.120;2022-12-26T06:38:29;8.60;99.90
19044;DHT22;9654;52.302;8.120;2022-12-26T06:40:57;8.60;99.90
19044;DHT22;9654;52.302;8.120;2022-12-26T06:43:23;8.60;99.90
19044;DHT22;9654;52.302;8.120;2022-12-26T06:45:54;8.60;99.90
19044;DHT22;9654;52.302;8.120;2022-12-26T06:48:21;8.60;99.90
19044;DHT22;9654;52.302;8.120;2022-12-26T06:50:47;8.60;99.90
19044;DHT22;9654;52.302;8.120;2022-12-26T06:53:14;8.60;99.90
19044;DHT22;9654;52.302;8.120;2022-12-26T06:55:41;8.60;99.90
19044;DHT22;9654;52.302;8.120;2022-12-26T06:58:09;8.60;99.90
19044;DHT22;9654;52.302;8.120;2022-12-26T07:00:36;8.60;99.90
19044;DHT22;9654;52.302;8.120;2022-12-26T07:03:03;8.50;99.90
19044;DHT22;9654;52.302;8.120;2022-12-26T07:05:29;8.60;99.90
19044;DHT22;9654;52.302;8.120;2022-12-26T07:07:56;8.60;99.90
19044;DHT22;9654;52.302;8.120;2022-12-26T07:10:23;8.60;99.90
19044;DHT22;9654;52.302;8.120;2022-12-26T07:12:49;8.50;99.90
19044;DHT22;9654;52.302;8.120;2022-12-26T07:15:17;8.50;99.90
19044;DHT22;9654;52.302;8.120;2022-12-26T07:17:44;8.50;99.90
19044;DHT22;9654;52.302;8.120;2022-12-26T07:20:11;8.60;99.90
19044;DHT22;9654;52.302;8.120;2022-12-26T07:22:38;8.50;99.90
19044;DHT22;9654;52.302;8.120;2022-12-26T07:25:05;8.50;99.90
19044;DHT22;9654;52.302;8.120;2022-12-26T07:27:32;8.50;99.90
19044;DHT22;9654;52.302;8.120;2022-12-26T07:29:59;8.50;99.90
19044;DHT22;9654;52.302;8.120;2022-12-26T07:32:27;8.50;99.90
19044;DHT22;9654;52.302;8.120;2022-12-26T07:34:54;8.50;99.90
19044;DHT22;9654;52.302;8.120;2022-12-26T07:37:20;8.50;99.90
19044;DHT22;9654;52.302;8.120;2022-12-26T07:39:47;8.50;99.90
19044;DHT22;9654;52.302;8.120;2022-12-26T07:42:14;8.50;99.90
19044;DHT22;9654;52.302;8.120;2022-12-26T07:44:41;8.50;99.90
19044;DHT22;9654;52.302;8.120;2022-12-26T07:47:07;8.60;99.90
19044;DHT22;9654;52.302;8.120;2022-12-26T07:49:37;8.60;99.90
19044;DHT22;9654;52.302;8.120;2022-12-26T07:52:04;8.60;99.90
19044;DHT22;9654;52.302;8.120;2022-12-26T07:54:30;8.60;99.90
19044;DHT22;9654;52.302;8.120;2022-12-26T07:56:57;8.50;99.90
19044;DHT22;9654;52.302;8.120;2022-12-26T07:59:24;8.60;99.90
19044;DHT22;9654;52.302;8.120;2022-12-26T08:01:51;8.60;99.90
19044;DHT22;9654;52.302;8.120;2022-12-26T08:04:17;8.60;99.90
19044;DHT22;9654;52.302;8.120;2022-12-26T08:06:46;8.60;99.90
19044;DHT22;9654;52.302;8.120;2022-12-26T08:09:14;8.60;99.90
19044;DHT22;9654;52.302;8.120;2022-12-26T08:11:41;8.60;99.90
19044;DHT22;9654;52.302;8.120;2022-12-26T08:14:10;8.70;99.90
19044;DHT22;9654;52.302;8.120;2022-12-26T08:16:37;8.70;99.90
19044;DHT22;9654;52.302;8.120;2022-12-26T08:19:04;8.70;99.90
19044;DHT22;9654;52.302;8.120;2022-12-26T08:21:31;8.70;99.90
19044;DHT22;9654;52.302;8.120;2022-12-26T08:23:59;8.70;99.90
19044;DHT22;9654;52.302;8.120;2022-12-26T08:26:25;8.80;99.90
19044;DHT22;9654;52.302;8.120;2022-12-26T08:28:55;8.80;99.90
19044;DHT22;9654;52.302;8.120;2022-12-26T08:31:22;8.80;99.90
19044;DHT22;9654;52.302;8.120;2022-12-26T08:33:49;8.80;99.90
19044;DHT22;9654;52.302;8.120;2022-12-26T08:36:16;8.80;99.90
19044;DHT22;9654;52.302;8.120;2022-12-26T08:38:43;8.80;99.90
19044;DHT22;9654;52.302;8.120;2022-12-26T08:41:12;8.80;99.90
19044;DHT22;9654;52.302;8.120;2022-12-26T08:43:38;8.90;99.90
19044;DHT22;9654;52.302;8.120;2022-12-26T08:46:08;8.90;99.90
19044;DHT22;9654;52.302;8.120;2022-12-26T08:48:37;8.90;99.90
19044;DHT22;9654;52.302;8.120;2022-12-26T08:51:06;8.90;99.90
19044;DHT22;9654;52.302;8.120;2022-12-26T08:53:34;9.00;99.90
19044;DHT22;9654;52.302;8.120;2022-12-26T08:56:03;9.00;99.90
19044;DHT22;9654;52.302;8.120;2022-12-26T08:58:32;9.00;99.90
19044;DHT22;9654;52.302;8.120;2022-12-26T09:01:05;9.00;99.90
19044;DHT22;9654;52.302;8.120;2022-12-26T09:03:33;9.10;99.90
19044;DHT22;9654;52.302;8.120;2022-12-26T09:05:59;9.10;99.90
19044;DHT22;9654;52.302;8.120;2022-12-26T09:08:27;9.10;99.90
19044;DHT22;9654;52.302;8.120;2022-12-26T09:10:54;9.10;99.90
19044;DHT22;9654;52.302;8.120;2022-12-26T09:13:21;9.20;99.90
19044;DHT22;9654;52.302;8.120;2022-12-26T09:15:49;9.20;99.90
19044;DHT22;9654;52.302;8.120;2022-12-26T09:18:16;9.20;99.90
19044;DHT22;9654;52.302;8.120;2022-12-26T09:20:43;9.30;99.90
19044;DHT22;9654;52.302;8.120;2022-12-26T09:23:09;9.30;99.90
19044;DHT22;9654;52.302;8.120;2022-12-26T09:25:36;9.30;99.90
19044;DHT22;9654;52.302;8.120;2022-12-26T09:28:03;9.30;99.90
19044;DHT22;9654;52.302;8.120;2022-12-26T09:30:30;9.30;99.90
19044;DHT22;9654;52.302;8.120;2022-12-26T09:32:58;9.30;99.90
19044;DHT22;9654;52.302;8.120;2022-12-26T09:35:25;9.30;99.90
19044;DHT22;9654;52.302;8.120;2022-12-26T09:37:51;9.40;99.90
19044;DHT22;9654;52.302;8.120;2022-12-26T09:40:23;9.30;99.90
19044;DHT22;9654;52.302;8.120;2022-12-26T09:43:03;9.40;99.90
19044;DHT22;9654;52.302;8.120;2022-12-26T09:45:44;9.40;99.90
19044;DHT22;9654;52.302;8.120;2022-12-26T09:48:16;9.40;99.90
19044;DHT22;9654;52.302;8.120;2022-12-26T09:50:49;9.40;99.90
19044;DHT22;9654;52.302;8.120;2022-12-26T09:53:21;9.50;99.90
19044;DHT22;9654;52.302;8.120;2022-12-26T09:55:51;9.50;99.90
19044;DHT22;9654;52.302;8.120;2022-12-26T09:58:25;9.50;99.90
19044;DHT22;9654;52.302;8.120;2022-12-26T10:00:56;9.50;99.90
19044;DHT22;9654;52.302;8.120;2022-12-26T10:03:26;9.60;99.90
19044;DHT22;9654;52.302;8.120;2022-12-26T10:06:08;9.60;99.90
19044;DHT22;9654;52.302;8.120;2022-12-26T10:08:45;9.70;99.90
19044;DHT22;9654;52.302;8.120;2022-12-26T10:11:18;9.70;99.90
19044;DHT22;9654;52.302;8.120;2022-12-26T10:13:50;9.80;99.90
19044;DHT22;9654;52.302;8.120;2022-12-26T10:16:25;9.70;99.90
19044;DHT22;9654;52.302;8.120;2022-12-26T10:19:00;9.70;99.90
19044;DHT22;9654;52.302;8.120;2022-12-26T10:21:36;9.70;99.90
19044;DHT22;9654;52.302;8.120;2022-12-26T10:24:13;9.70;99.90
19044;DHT22;9654;52.302;8.120;2022-12-26T10:26:42;9.80;99.90
19044;DHT22;9654;52.302;8.120;2022-12-26T10:29:14;9.80;99.90
19044;DHT22;9654;52.302;8.120;2022-12-26T10:31:45;9.80;99.90
19044;DHT22;9654;52.302;8.120;2022-12-26T10:34:17;9.90;99.90
19044;DHT22;9654;52.302;8.120;2022-12-26T10:36:47;9.90;99.90
19044;DHT22;9654;52.302;8.120;2022-12-26T10:39:20;9.90;99.90
19044;DHT22;9654;52.302;8.120;2022-12-26T10:41:50;9.90;99.90
19044;DHT22;9654;52.302;8.120;2022-12-26T10:44:18;9.90;99.90
19044;DHT22;9654;52.302;8.120;2022-12-26T10:49:45;9.90;99.90
19044;DHT22;9654;52.302;8.120;2022-12-26T10:52:13;9.80;99.90
19044;DHT22;9654;52.302;8.120;2022-12-26T10:54:41;9.80;99.90
19044;DHT22;9654;52.302;8.120;2022-12-26T10:57:10;9.70;99.90
19044;DHT22;9654;52.302;8.120;2022-12-26T10:59:41;9.70;99.90
19044;DHT22;9654;52.302;8.120;2022-12-26T11:02:24;9.70;99.90
19044;DHT22;9654;52.302;8.120;2022-12-26T11:05:06;9.70;99.90
19044;DHT22;9654;52.302;8.120;2022-12-26T11:07:35;9.70;99.90
19044;DHT22;9654;52.302;8.120;2022-12-26T11:10:05;9.70;99.90
19044;DHT22;9654;52.302;8.120;2022-12-26T11:12:41;9.80;99.90
19044;DHT22;9654;52.302;8.120;2022-12-26T11:15:19;9.90;99.90
19044;DHT22;9654;52.302;8.120;2022-12-26T11:17:48;9.90;99.90
19044;DHT22;9654;52.302;8.120;2022-12-26T11:20:29;10.00;99.90
19044;DHT22;9654;52.302;8.120;2022-12-26T11:23:19;10.00;99.90
19044;DHT22;9654;52.302;8.120;2022-12-26T11:25:48;10.00;99.90
19044;DHT22;9654;52.302;8.120;2022-12-26T11:28:23;10.10;99.90
19044;DHT22;9654;52.302;8.120;2022-12-26T11:30:50;10.10;99.90
19044;DHT22;9654;52.302;8.120;2022-12-26T11:33:23;10.10;99.90
19044;DHT22;9654;52.302;8.120;2022-12-26T11:36:03;10.10;99.90
19044;DHT22;9654;52.302;8.120;2022-12-26T11:38:32;10.00;99.90
19044;DHT22;9654;52.302;8.120;2022-12-26T11:41:08;10.00;99.90
19044;DHT22;9654;52.302;8.120;2022-12-26T11:43:54;10.00;99.90
19044;DHT22;9654;52.302;8.120;2022-12-26T11:46:31;9.90;99.90
19044;DHT22;9654;52.302;8.120;2022-12-26T11:48:59;9.80;99.90
19044;DHT22;9654;52.302;8.120;2022-12-26T11:51:37;9.80;99.90
19044;DHT22;9654;52.302;8.120;2022-12-26T11:54:32;9.70;99.90
19044;DHT22;9654;52.302;8.120;2022-12-26T11:57:02;9.80;99.90
19044;DHT22;9654;52.302;8.120;2022-12-26T11:59:29;9.80;99.90
19044;DHT22;9654;52.302;8.120;2022-12-26T12:02:18;9.80;99.90
19044;DHT22;9654;52.302;8.120;2022-12-26T12:04:51;9.70;99.90
19044;DHT22;9654;52.302;8.120;2022-12-26T12:07:31;9.70;99.90
19044;DHT22;9654;52.302;8.120;2022-12-26T12:10:09;9.70;99.90
19044;DHT22;9654;52.302;8.120;2022-12-26T12:12:47;9.60;99.90
19044;DHT22;9654;52.302;8.120;2022-12-26T12:15:20;9.60;99.90
19044;DHT22;9654;52.302;8.120;2022-12-26T12:17:54;9.50;99.90
19044;DHT22;9654;52.302;8.120;2022-12-26T12:20:29;9.50;99.90
19044;DHT22;9654;52.302;8.120;2022-12-26T12:26:05;9.30;99.90
19044;DHT22;9654;52.302;8.120;2022-12-26T12:29:02;9.30;99.90
19044;DHT22;9654;52.302;8.120;2022-12-26T12:31:41;9.20;99.90
19044;DHT22;9654;52.302;8.120;2022-12-26T12:34:22;9.10;99.90
19044;DHT22;9654;52.302;8.120;2022-12-26T12:37:02;9.10;99.90
19044;DHT22;9654;52.302;8.120;2022-12-26T12:39:42;9.10;99.90
19044;DHT22;9654;52.302;8.120;2022-12-26T12:42:21;9.10;99.90
19044;DHT22;9654;52.302;8.120;2022-12-26T12:45:03;9.00;99.90
19044;DHT22;9654;52.302;8.120;2022-12-26T12:47:40;8.60;99.90
19044;DHT22;9654;52.302;8.120;2022-12-26T12:50:16;8.40;99.90
19044;DHT22;9654;52.302;8.120;2022-12-26T12:52:54;8.30;99.90
19044;DHT22;9654;52.302;8.120;2022-12-26T12:55:41;8.10;99.90
19044;DHT22;9654;52.302;8.120;2022-12-26T12:58:16;8.00;99.90
19044;DHT22;9654;52.302;8.120;2022-12-26T13:00:50;7.90;99.90
19044;DHT22;9654;52.302;8.120;2022-12-26T13:03:26;7.90;99.90
19044;DHT22;9654;52.302;8.120;2022-12-26T13:05:59;7.70;99.90
19044;DHT22;9654;52.302;8.120;2022-12-26T13:08:31;7.60;99.90
19044;DHT22;9654;52.302;8.120;2022-12-26T13:11:02;7.40;99.90
19044;DHT22;9654;52.302;8.120;2022-12-26T13:13:36;7.30;99.90
19044;DHT22;9654;52.302;8.120;2022-12-26T13:16:07;7.20;99.90
19044;DHT22;9654;52.302;8.120;2022-12-26T13:18:39;7.20;99.90
19044;DHT22;9654;52.302;8.120;2022-12-26T13:21:10;7.10;99.90
19044;DHT22;9654;52.302;8.120;2022-12-26T13:23:41;7.00;99.90
19044;DHT22;9654;52.302;8.120;2022-12-26T13:26:30;7.00;99.90
19044;DHT22;9654;52.302;8.120;2022-12-26T13:29:00;6.90;99.90
19044;DHT22;9654;52.302;8.120;2022-12-26T13:31:31;7.00;99.90
19044;DHT22;9654;52.302;8.120;2022-12-26T13:33:58;6.90;99.90
19044;DHT22;9654;52.302;8.120;2022-12-26T13:36:35;6.90;99.90
19044;DHT22;9654;52.302;8.120;2022-12-26T13:39:34;6.90;99.90
19044;DHT22;9654;52.302;8.120;2022-12-26T13:42:25;6.90;99.90
19044;DHT22;9654;52.302;8.120;2022-12-26T13:45:46;6.90;99.90
19044;DHT22;9654;52.302;8.120;2022-12-26T13:51:44;6.90;99.90
19044;DHT22;9654;52.302;8.120;2022-12-26T13:54:12;6.90;99.90
19044;DHT22;9654;52.302;8.120;2022-12-26T13:57:15;6.90;99.90
19044;DHT22;9654;52.302;8.120;2022-12-26T13:59:59;6.90;99.90
19044;DHT22;9654;52.302;8.120;2022-12-26T14:05:40;7.00;99.90
19044;DHT22;9654;52.302;8.120;2022-12-26T14:08:17;6.90;99.90
19044;DHT22;9654;52.302;8.120;2022-12-26T14:11:01;6.90;99.90
19044;DHT22;9654;52.302;8.120;2022-12-26T14:13:53;6.90;99.90
19044;DHT22;9654;52.302;8.120;2022-12-26T14:16:26;6.90;99.90
19044;DHT22;9654;52.302;8.120;2022-12-26T14:19:01;6.90;99.90
19044;DHT22;9654;52.302;8.120;2022-12-26T14:21:36;6.90;99.90
19044;DHT22;9654;52.302;8.120;2022-12-26T14:24:15;6.90;99.90
19044;DHT22;9654;52.302;8.120;2022-12-26T14:26:48;6.90;99.90
19044;DHT22;9654;52.302;8.120;2022-12-26T14:29:22;6.90;99.90
19044;DHT22;9654;52.302;8.120;2022-12-26T14:32:01;6.90;99.90
19044;DHT22;9654;52.302;8.120;2022-12-26T14:34:44;6.80;99.90
19044;DHT22;9654;52.302;8.120;2022-12-26T14:37:17;6.80;99.90
19044;DHT22;9654;52.302;8.120;2022-12-26T14:39:59;6.70;99.90
19044;DHT22;9654;52.302;8.120;2022-12-26T14:42:29;6.70;99.90
19044;DHT22;9654;52.302;8.120;2022-12-26T14:45:36;6.60;99.90
19044;DHT22;9654;52.302;8.120;2022-12-26T14:48:39;6.60;99.90
19044;DHT22;9654;52.302;8.120;2022-12-26T14:51:37;6.50;99.90
19044;DHT22;9654;52.302;8.120;2022-12-26T14:54:35;6.50;99.90
19044;DHT22;9654;52.302;8.120;2022-12-26T15:00:23;6.40;99.90
19044;DHT22;9654;52.302;8.120;2022-12-26T15:03:22;6.40;99.90
19044;DHT22;9654;52.302;8.120;2022-12-26T15:05:51;6.30;99.90
19044;DHT22;9654;52.302;8.120;2022-12-26T15:08:36;6.30;99.90
19044;DHT22;9654;52.302;8.120;2022-12-26T15:14:32;6.20;99.90
19044;DHT22;9654;52.302;8.120;2022-12-26T15:17:12;6.20;99.90
19044;DHT22;9654;52.302;8.120;2022-12-26T15:20:08;6.10;99.90
19044;DHT22;9654;52.302;8.120;2022-12-26T15:22:58;6.10;99.90
19044;DHT22;9654;52.302;8.120;2022-12-26T15:25:54;6.10;99.90
19044;DHT22;9654;52.302;8.120;2022-12-26T15:31:42;6.00;99.90
19044;DHT22;9654;52.302;8.120;2022-12-26T15:34:31;5.90;99.90
19044;DHT22;9654;52.302;8.120;2022-12-26T15:37:06;5.90;99.90
19044;DHT22;9654;52.302;8.120;2022-12-26T15:39:41;5.90;99.90
19044;DHT22;9654;52.302;8.120;2022-12-26T15:42:23;5.80;99.90
19044;DHT22;9654;52.302;8.120;2022-12-26T15:45:02;5.80;99.90
19044;DHT22;9654;52.302;8.120;2022-12-26T15:47:36;5.80;99.90
19044;DHT22;9654;52.302;8.120;2022-12-26T15:50:16;5.70;99.90
19044;DHT22;9654;52.302;8.120;2022-12-26T15:52:52;5.60;99.90
19044;DHT22;9654;52.302;8.120;2022-12-26T15:55:32;5.60;99.90
19044;DHT22;9654;52.302;8.120;2022-12-26T15:58:10;5.50;99.90
19044;DHT22;9654;52.302;8.120;2022-12-26T16:00:47;5.40;99.90
19044;DHT22;9654;52.302;8.120;2022-12-26T16:03:21;5.40;99.90
19044;DHT22;9654;52.302;8.120;2022-12-26T16:05:53;5.40;99.90
19044;DHT22;9654;52.302;8.120;2022-12-26T16:08:47;5.30;99.90
19044;DHT22;9654;52.302;8.120;2022-12-26T16:11:19;5.30;99.90
19044;DHT22;9654;52.302;8.120;2022-12-26T16:13:56;5.30;99.90
19044;DHT22;9654;52.302;8.120;2022-12-26T16:16:31;5.40;99.90
19044;DHT22;9654;52.302;8.120;2022-12-26T16:19:13;5.40;99.90
19044;DHT22;9654;52.302;8.120;2022-12-26T16:21:41;5.40;99.90
19044;DHT22;9654;52.302;8.120;2022-12-26T16:24:31;5.40;99.90
19044;DHT22;9654;52.302;8.120;2022-12-26T16:27:00;5.40;99.90
19044;DHT22;9654;52.302;8.120;2022-12-26T16:29:29;5.40;99.90
19044;DHT22;9654;52.302;8.120;2022-12-26T16:32:01;5.30;99.90
19044;DHT22;9654;52.302;8.120;2022-12-26T16:34:31;5.30;99.90
19044;DHT22;9654;52.302;8.120;2022-12-26T16:36:59;5.20;99.90
19044;DHT22;9654;52.302;8.120;2022-12-26T16:39:26;5.20;99.90
19044;DHT22;9654;52.302;8.120;2022-12-26T16:42:00;5.20;99.90
19044;DHT22;9654;52.302;8.120;2022-12-26T16:44:31;5.20;99.90
19044;DHT22;9654;52.302;8.120;2022-12-26T16:47:04;5.20;99.90
19044;DHT22;9654;52.302;8.120;2022-12-26T16:49:32;5.30;99.90
19044;DHT22;9654;52.302;8.120;2022-12-26T16:51:59;5.30;99.90
19044;DHT22;9654;52.302;8.120;2022-12-26T16:54:34;5.20;99.90
19044;DHT22;9654;52.302;8.120;2022-12-26T16:57:06;5.30;99.90
19044;DHT22;9654;52.302;8.120;2022-12-26T16:59:40;5.30;99.90
19044;DHT22;9654;52.302;8.120;2022-12-26T17:02:15;5.30;99.90
19044;DHT22;9654;52.302;8.120;2022-12-26T17:04:49;5.30;99.90
19044;DHT22;9654;52.302;8.120;2022-12-26T17:07:17;5.30;99.90
19044;DHT22;9654;52.302;8.120;2022-12-26T17:09:52;5.30;99.90
19044;DHT22;9654;52.302;8.120;2022-12-26T17:12:23;5.30;99.90
19044;DHT22;9654;52.302;8.120;2022-12-26T17:14:52;5.20;99.90
19044;DHT22;9654;52.302;8.120;2022-12-26T17:17:29;5.20;99.90